createdAt,value
2019-01-17T00:00:49.562Z,6.97
2019-01-17T00:03:26.784Z,5.37
2019-01-17T00:06:03.765Z,8.87
2019-01-17T00:08:51.789Z,5.10
2019-01-17T00:11:51.817Z,5.20
2019-01-17T00:14:38.441Z,4.70
2019-01-17T00:17:41.649Z,4.67
2019-01-17T00:20:29.598Z,4.70
2019-01-17T00:23:16.475Z,7.27
2019-01-17T00:26:07.284Z,4.40
2019-01-17T00:28:59.376Z,5.17
2019-01-17T00:31:47.468Z,3.93
2019-01-17T00:34:39.466Z,7.10
2019-01-17T00:37:19.606Z,4.33
2019-01-17T00:40:07.718Z,3.40
2019-01-17T00:43:07.643Z,4.33
2019-01-17T00:46:13.734Z,5.20
2019-01-17T00:48:52.148Z,4.50
2019-01-17T00:51:46.099Z,3.90
2019-01-17T00:54:34.189Z,3.73
2019-01-17T00:57:22.277Z,4.13
2019-01-17T01:00:25.529Z,4.30
2019-01-17T01:03:03.314Z,3.50
2019-01-17T01:05:50.037Z,5.77
2019-01-17T01:08:36.857Z,4.20
2019-01-17T01:11:24.933Z,6.07
2019-01-17T01:14:18.785Z,3.70
2019-01-17T01:17:01.568Z,3.77
2019-01-17T01:19:52.476Z,4.00
2019-01-17T01:22:34.436Z,3.97
2019-01-17T01:25:16.462Z,4.47
2019-01-17T01:28:07.570Z,4.27
2019-01-17T01:30:47.682Z,4.20
2019-01-17T01:33:34.037Z,4.10
2019-01-17T01:36:20.798Z,4.43
2019-01-17T01:39:07.573Z,4.20
2019-01-17T01:41:59.285Z,3.73
2019-01-17T01:44:56.281Z,4.67
2019-01-17T01:48:02.509Z,3.87
2019-01-17T01:50:50.573Z,4.13
2019-01-17T01:53:19.597Z,4.63
2019-01-17T01:55:48.638Z,3.93
2019-01-17T01:58:17.673Z,6.50
2019-01-17T02:00:46.717Z,3.80
2019-01-17T02:03:15.824Z,3.50
2019-01-17T02:05:44.848Z,4.00
2019-01-17T02:08:13.868Z,4.27
2019-01-17T02:10:42.913Z,4.30
2019-01-17T02:13:11.926Z,3.97
2019-01-17T02:15:40.889Z,4.37
2019-01-17T02:18:09.900Z,4.60
2019-01-17T02:20:38.934Z,8.20
2019-01-17T02:23:07.958Z,6.63
2019-01-17T02:25:36.993Z,3.80
2019-01-17T02:28:06.036Z,4.73
2019-01-17T02:30:35.068Z,4.80
2019-01-17T02:33:04.094Z,4.40
2019-01-17T02:35:33.119Z,4.37
2019-01-17T02:38:02.154Z,3.93
2019-01-17T02:40:31.173Z,4.50
2019-01-17T02:43:00.221Z,5.50
2019-01-17T02:45:29.233Z,4.70
2019-01-17T02:47:58.258Z,3.90
2019-01-17T02:50:27.359Z,4.27
2019-01-17T02:52:56.385Z,4.43
2019-01-17T02:55:25.390Z,3.57
2019-01-17T02:57:54.413Z,4.10
2019-01-17T03:00:23.423Z,3.63
2019-01-17T03:02:52.448Z,3.40
2019-01-17T03:05:21.465Z,4.07
2019-01-17T03:07:50.477Z,3.70
2019-01-17T03:10:19.510Z,3.90
2019-01-17T03:12:48.527Z,4.37
2019-01-17T03:15:17.570Z,3.70
2019-01-17T03:17:46.583Z,4.90
2019-01-17T03:20:15.607Z,3.50
2019-01-17T03:22:44.728Z,4.20
2019-01-17T03:25:13.768Z,4.13
2019-01-17T03:27:42.783Z,4.33
2019-01-17T03:30:17.203Z,5.10
2019-01-17T03:32:46.810Z,3.83
2019-01-17T03:35:15.815Z,3.53
2019-01-17T03:37:44.853Z,4.30
2019-01-17T03:40:15.986Z,4.30
2019-01-17T03:42:45.241Z,3.40
2019-01-17T03:45:14.747Z,3.10
2019-01-17T03:47:43.830Z,3.40
2019-01-17T03:50:14.713Z,5.80
2019-01-17T03:52:44.067Z,4.20
2019-01-17T03:55:15.471Z,4.10
2019-01-17T03:57:44.392Z,5.60
2019-01-17T04:00:16.132Z,3.33
2019-01-17T04:02:45.160Z,3.90
2019-01-17T04:05:14.177Z,3.90
2019-01-17T04:07:43.213Z,3.20
2019-01-17T04:10:13.009Z,2.60
2019-01-17T04:12:42.032Z,4.43
2019-01-17T04:15:11.116Z,3.40
2019-01-17T04:17:40.136Z,2.60
2019-01-17T04:20:12.021Z,3.30
2019-01-17T04:22:41.047Z,3.57
2019-01-17T04:25:10.102Z,3.50
2019-01-17T04:27:39.139Z,3.20
2019-01-17T04:30:16.858Z,4.53
2019-01-17T04:32:45.886Z,3.00
2019-01-17T04:35:14.908Z,4.00
2019-01-17T04:37:43.928Z,3.03
2019-01-17T04:40:13.597Z,3.03
2019-01-17T04:42:42.549Z,4.57
2019-01-17T04:45:12.553Z,2.77
2019-01-17T04:47:41.568Z,2.80
2019-01-17T04:50:11.949Z,3.27
2019-01-17T04:52:41.005Z,2.70
2019-01-17T04:55:11.220Z,3.17
2019-01-17T04:57:40.232Z,2.73
2019-01-17T05:00:12.808Z,3.17
2019-01-17T05:02:41.821Z,3.00
2019-01-17T05:05:11.027Z,2.30
2019-01-17T05:07:40.056Z,2.93
2019-01-17T05:10:09.779Z,3.00
2019-01-17T05:12:38.720Z,2.67
2019-01-17T05:15:08.275Z,3.10
2019-01-17T05:17:37.353Z,3.80
2019-01-17T05:20:08.232Z,2.47
2019-01-17T05:22:37.185Z,2.60
2019-01-17T05:25:12.435Z,2.90
2019-01-17T05:27:37.193Z,3.03
2019-01-17T05:30:08.144Z,2.60
2019-01-17T05:32:37.144Z,2.40
2019-01-17T05:35:06.267Z,3.13
2019-01-17T05:37:35.268Z,3.27
2019-01-17T05:40:05.248Z,2.87
2019-01-17T05:42:34.263Z,2.50
2019-01-17T05:45:03.283Z,2.13
2019-01-17T05:47:32.284Z,3.33
2019-01-17T05:50:01.418Z,2.77
2019-01-17T05:52:30.426Z,2.83
2019-01-17T05:54:59.436Z,3.00
2019-01-17T05:57:28.322Z,3.00
2019-01-17T05:59:57.245Z,3.23
2019-01-17T06:02:26.282Z,2.80
2019-01-17T06:04:55.292Z,2.67
2019-01-17T06:07:24.291Z,2.50
2019-01-17T06:09:53.312Z,3.10
2019-01-17T06:12:22.316Z,3.80
2019-01-17T06:14:51.256Z,2.50
2019-01-17T06:17:20.272Z,2.40
2019-01-17T06:19:49.287Z,2.63
2019-01-17T06:22:18.155Z,2.63
2019-01-17T06:24:47.156Z,3.03
2019-01-17T06:27:16.106Z,2.57
2019-01-17T06:29:45.115Z,2.40
2019-01-17T06:32:14.144Z,2.77
2019-01-17T06:34:43.144Z,2.23
2019-01-17T06:37:12.240Z,2.70
2019-01-17T06:39:41.309Z,2.40
2019-01-17T06:42:10.365Z,2.87
2019-01-17T06:44:39.363Z,2.50
2019-01-17T06:47:08.375Z,2.53
2019-01-17T06:49:37.412Z,1.93
2019-01-17T06:52:06.424Z,2.30
2019-01-17T06:54:35.469Z,2.40
2019-01-17T06:57:04.472Z,2.30
2019-01-17T06:59:33.499Z,2.43
2019-01-17T07:02:02.588Z,1.97
2019-01-17T07:04:31.477Z,2.30
2019-01-17T07:07:00.481Z,2.30
2019-01-17T07:09:29.424Z,3.60
2019-01-17T07:11:58.436Z,2.37
2019-01-17T07:14:27.472Z,2.47
2019-01-17T07:16:56.463Z,3.30
2019-01-17T07:19:25.464Z,2.27
2019-01-17T07:21:54.472Z,2.30
2019-01-17T07:24:23.500Z,2.50
2019-01-17T07:26:52.616Z,2.53
2019-01-17T07:29:21.643Z,2.40
2019-01-17T07:31:50.635Z,4.97
2019-01-17T07:34:19.465Z,66.23
2019-01-17T07:36:48.459Z,130.03
2019-01-17T07:39:18.045Z,129.90
2019-01-17T07:41:47.091Z,131.20
2019-01-17T07:44:16.131Z,157.93
2019-01-17T07:46:45.155Z,147.13
2019-01-17T07:49:14.173Z,159.93
2019-01-17T07:51:43.216Z,154.53
2019-01-17T07:54:12.236Z,138.63
2019-01-17T07:56:41.279Z,123.00
2019-01-17T07:59:10.296Z,128.70
2019-01-17T08:01:39.332Z,144.60
2019-01-17T08:04:08.359Z,113.80
2019-01-17T08:06:37.391Z,106.70
2019-01-17T08:09:09.376Z,114.77
2019-01-17T08:11:38.419Z,93.23
2019-01-17T08:14:07.427Z,78.13
2019-01-17T08:16:36.379Z,79.07
2019-01-17T08:19:05.387Z,91.90
2019-01-17T08:21:34.425Z,70.20
2019-01-17T08:24:03.429Z,78.40
2019-01-17T08:26:32.464Z,74.67
2019-01-17T08:29:01.471Z,60.77
2019-01-17T08:31:30.429Z,72.77
2019-01-17T08:33:59.452Z,73.23
2019-01-17T08:36:28.480Z,62.73
2019-01-17T08:38:57.491Z,59.03
2019-01-17T08:41:26.532Z,61.87
2019-01-17T08:43:55.471Z,62.63
2019-01-17T08:46:24.420Z,52.40
2019-01-17T08:48:53.443Z,50.73
2019-01-17T08:51:22.471Z,62.40
2019-01-17T08:53:51.400Z,60.60
2019-01-17T08:56:20.427Z,61.37
2019-01-17T08:58:49.441Z,61.83
2019-01-17T09:01:18.476Z,49.20
2019-01-17T09:03:47.503Z,46.87
2019-01-17T09:06:16.537Z,37.07
2019-01-17T09:08:45.557Z,48.83
2019-01-17T09:11:14.587Z,37.33
2019-01-17T09:13:43.516Z,40.80
2019-01-17T09:16:12.551Z,53.77
2019-01-17T09:18:41.569Z,56.03
2019-01-17T09:21:10.599Z,38.83
2019-01-17T09:23:39.617Z,46.80
2019-01-17T09:26:08.647Z,41.00
2019-01-17T09:28:37.588Z,36.27
2019-01-17T09:31:06.634Z,38.83
2019-01-17T09:33:35.661Z,35.97
2019-01-17T09:36:04.696Z,37.83
2019-01-17T09:38:33.718Z,32.93
2019-01-17T09:41:02.747Z,37.70
2019-01-17T09:43:31.702Z,36.60
2019-01-17T09:46:00.725Z,31.73
2019-01-17T09:48:29.755Z,32.83
2019-01-17T09:50:58.798Z,30.07
2019-01-17T09:53:27.701Z,35.17
2019-01-17T09:55:56.721Z,29.27
2019-01-17T09:58:25.749Z,32.33
2019-01-17T10:00:54.773Z,34.33
2019-01-17T10:03:23.816Z,28.67
2019-01-17T10:05:52.831Z,30.17
2019-01-17T10:08:21.869Z,26.37
2019-01-17T10:10:50.902Z,28.83
2019-01-17T10:13:19.936Z,30.20
2019-01-17T10:16:07.402Z,31.93
2019-01-17T10:19:08.376Z,28.07
2019-01-17T10:22:12.273Z,32.83
2019-01-17T10:25:06.672Z,27.17
2019-01-17T10:28:24.599Z,31.00
2019-01-17T10:31:21.004Z,30.37
2019-01-17T10:34:14.020Z,23.40
2019-01-17T10:37:18.741Z,29.60
2019-01-17T10:40:23.080Z,30.90
2019-01-17T10:43:15.564Z,25.50
2019-01-17T10:46:24.886Z,22.93
2019-01-17T10:49:41.138Z,20.40
2019-01-17T10:52:41.520Z,23.80
2019-01-17T10:56:02.496Z,25.83
2019-01-17T10:58:55.848Z,20.13
2019-01-17T11:02:16.545Z,21.00
2019-01-17T11:05:08.955Z,15.90
2019-01-17T11:08:05.863Z,17.60
2019-01-17T11:11:12.333Z,17.27
2019-01-17T11:14:23.644Z,17.30
2019-01-17T11:17:28.447Z,19.60
2019-01-17T11:20:29.224Z,17.40
2019-01-17T11:23:23.336Z,14.40
2019-01-17T11:26:08.710Z,20.07
2019-01-17T11:29:01.708Z,19.17
2019-01-17T11:32:01.441Z,15.93
2019-01-17T11:35:11.433Z,16.97
2019-01-17T11:38:07.676Z,16.67
2019-01-17T11:41:13.260Z,20.57
2019-01-17T11:44:26.176Z,14.87
2019-01-17T11:47:48.004Z,16.30
2019-01-17T11:51:01.076Z,18.20
2019-01-17T11:54:17.134Z,12.27
2019-01-17T11:57:22.324Z,17.33
2019-01-17T12:00:19.724Z,12.40
2019-01-17T12:03:12.701Z,12.20
2019-01-17T12:05:41.662Z,13.17
2019-01-17T12:08:10.677Z,17.13
2019-01-17T12:10:39.728Z,15.10
2019-01-17T12:13:08.695Z,14.50
2019-01-17T12:15:37.738Z,10.83
2019-01-17T12:18:06.728Z,11.43
2019-01-17T12:20:35.684Z,15.00
2019-01-17T12:23:04.792Z,12.43
2019-01-17T12:25:33.825Z,14.77
2019-01-17T12:28:02.761Z,12.17
2019-01-17T12:30:31.721Z,15.33
2019-01-17T12:33:00.661Z,17.77
2019-01-17T12:35:29.611Z,11.73
2019-01-17T12:37:58.624Z,15.70
2019-01-17T12:40:27.643Z,10.20
2019-01-17T12:42:56.671Z,12.70
2019-01-17T12:45:25.736Z,10.27
2019-01-17T12:47:54.705Z,13.77
2019-01-17T12:50:23.772Z,12.50
2019-01-17T12:52:52.779Z,10.47
2019-01-17T12:55:21.808Z,11.47
2019-01-17T12:57:50.841Z,14.83
2019-01-17T13:00:20.934Z,13.37
2019-01-17T13:02:49.989Z,10.90
2019-01-17T13:05:19.056Z,9.37
2019-01-17T13:07:48.065Z,11.00
2019-01-17T13:10:18.589Z,8.80
2019-01-17T13:12:47.545Z,11.07
2019-01-17T13:15:16.567Z,11.53
2019-01-17T13:17:45.588Z,10.23
2019-01-17T13:20:16.254Z,11.00
2019-01-17T13:22:45.372Z,7.63
2019-01-17T13:25:17.440Z,10.90
2019-01-17T13:27:46.554Z,10.80
2019-01-17T13:30:17.808Z,9.30
2019-01-17T13:32:47.132Z,11.90
2019-01-17T13:35:16.473Z,9.37
2019-01-17T13:37:45.485Z,11.37
2019-01-17T13:40:19.828Z,11.13
2019-01-17T13:42:48.873Z,10.57
2019-01-17T13:45:19.287Z,10.27
2019-01-17T13:47:48.439Z,7.47
2019-01-17T13:50:17.752Z,8.13
2019-01-17T13:52:47.081Z,10.57
2019-01-17T13:55:16.322Z,10.50
2019-01-17T13:57:45.345Z,6.93
2019-01-17T14:00:17.221Z,7.63
2019-01-17T14:02:46.268Z,8.27
2019-01-17T14:05:15.590Z,8.17
2019-01-17T14:07:44.809Z,10.07
2019-01-17T14:10:14.220Z,10.23
2019-01-17T14:12:43.238Z,12.70
2019-01-17T14:15:24.083Z,8.33
2019-01-17T14:17:53.123Z,9.40
2019-01-17T14:20:22.141Z,6.97
2019-01-17T14:22:51.190Z,8.60
2019-01-17T14:25:20.129Z,9.77
2019-01-17T14:27:49.377Z,8.73
2019-01-17T14:30:23.871Z,7.50
2019-01-17T14:32:52.813Z,6.63
2019-01-17T14:35:21.823Z,6.20
2019-01-17T14:37:50.839Z,9.03
2019-01-17T14:40:19.777Z,5.83
2019-01-17T14:42:48.808Z,6.37
2019-01-17T14:45:18.560Z,6.07
2019-01-17T14:47:47.601Z,6.60
2019-01-17T14:50:21.529Z,5.70
2019-01-17T14:52:50.556Z,8.83
2019-01-17T14:55:19.556Z,6.30
2019-01-17T14:57:48.576Z,5.10
2019-01-17T15:00:19.376Z,9.40
2019-01-17T15:02:48.390Z,6.50
2019-01-17T15:05:17.447Z,5.40
2019-01-17T15:07:46.367Z,7.43
2019-01-17T15:10:18.062Z,6.70
2019-01-17T15:12:47.080Z,7.00
2019-01-17T15:15:16.154Z,5.67
2019-01-17T15:17:45.181Z,6.47
2019-01-17T15:20:16.521Z,5.43
2019-01-17T15:22:46.690Z,6.67
2019-01-17T15:25:15.716Z,5.40
2019-01-17T15:27:44.729Z,6.40
2019-01-17T15:30:16.428Z,5.10
2019-01-17T15:32:45.435Z,6.67
2019-01-17T15:35:14.464Z,5.83
2019-01-17T15:37:43.499Z,5.10
2019-01-17T15:40:15.917Z,6.23
2019-01-17T15:42:44.920Z,4.43
2019-01-17T15:45:13.961Z,5.70
2019-01-17T15:47:43.049Z,7.03
2019-01-17T15:50:12.276Z,5.07
2019-01-17T15:52:41.284Z,4.83
2019-01-17T15:55:11.612Z,5.87
2019-01-17T15:57:40.621Z,4.63
2019-01-17T16:00:14.423Z,3.80
2019-01-17T16:02:43.423Z,7.20
2019-01-17T16:05:12.448Z,6.40
2019-01-17T16:07:41.467Z,5.60
2019-01-17T16:10:11.104Z,5.30
2019-01-17T16:12:40.108Z,4.93
2019-01-17T16:15:11.989Z,4.77
2019-01-17T16:17:41.006Z,4.17
2019-01-17T16:20:11.047Z,4.30
2019-01-17T16:22:40.065Z,5.37
2019-01-17T16:25:10.156Z,6.97
2019-01-17T16:27:41.799Z,5.90
2019-01-17T16:30:13.739Z,3.93
2019-01-17T16:32:42.751Z,4.13
2019-01-17T16:35:12.608Z,4.80
2019-01-17T16:37:41.629Z,5.07
2019-01-17T16:40:10.964Z,3.60
2019-01-17T16:42:40.033Z,5.90
2019-01-17T16:45:10.088Z,5.90
2019-01-17T16:47:38.999Z,5.00
2019-01-17T16:50:12.472Z,4.33
2019-01-17T16:52:41.476Z,6.30
2019-01-17T16:55:11.028Z,3.07
2019-01-17T16:57:40.031Z,3.17
2019-01-17T17:00:16.531Z,4.87
2019-01-17T17:02:45.501Z,4.57
2019-01-17T17:05:15.261Z,4.53
2019-01-17T17:07:44.324Z,5.83
2019-01-17T17:10:14.279Z,3.40
2019-01-17T17:12:43.280Z,5.83
2019-01-17T17:15:12.416Z,3.33
2019-01-17T17:17:41.348Z,5.87
2019-01-17T17:20:12.956Z,4.23
2019-01-17T17:22:41.947Z,4.80
2019-01-17T17:25:10.984Z,5.40
2019-01-17T17:27:39.979Z,3.97
2019-01-17T17:30:12.431Z,3.67
2019-01-17T17:32:41.355Z,4.27
2019-01-17T17:35:10.388Z,4.70
2019-01-17T17:37:39.387Z,4.53
2019-01-17T17:40:12.351Z,3.53
2019-01-17T17:42:41.281Z,7.37
2019-01-17T17:45:10.608Z,3.57
2019-01-17T17:47:39.612Z,3.30
2019-01-17T17:50:10.284Z,2.83
2019-01-17T17:52:39.236Z,3.03
2019-01-17T17:55:09.639Z,3.97
2019-01-17T17:57:38.689Z,3.50
2019-01-17T18:00:12.165Z,3.30
2019-01-17T18:02:41.264Z,3.47
2019-01-17T18:05:11.325Z,3.30
2019-01-17T18:07:40.388Z,2.60
2019-01-17T18:10:12.021Z,3.97
2019-01-17T18:12:41.022Z,2.40
2019-01-17T18:15:11.438Z,2.87
2019-01-17T18:17:40.428Z,3.00
2019-01-17T18:20:10.396Z,3.40
2019-01-17T18:22:39.419Z,2.77
2019-01-17T18:25:09.057Z,3.13
2019-01-17T18:27:38.068Z,4.03
2019-01-17T18:30:11.636Z,3.23
2019-01-17T18:32:40.718Z,3.33
2019-01-17T18:35:09.746Z,2.83
2019-01-17T18:37:38.710Z,3.53
2019-01-17T18:40:09.657Z,3.03
2019-01-17T18:42:38.676Z,5.20
2019-01-17T18:45:10.144Z,3.73
2019-01-17T18:47:39.139Z,3.90
2019-01-17T18:50:10.943Z,2.83
2019-01-17T18:52:39.980Z,3.20
2019-01-17T18:55:08.995Z,4.47
2019-01-17T18:57:37.944Z,2.53
2019-01-17T19:00:15.017Z,5.50
2019-01-17T19:02:43.867Z,8.20
2019-01-17T19:05:12.992Z,4.77
2019-01-17T19:07:41.926Z,4.03
2019-01-17T19:10:10.931Z,5.10
2019-01-17T19:12:39.943Z,9.00
2019-01-17T19:15:11.407Z,14.57
2019-01-17T19:17:40.423Z,13.83
2019-01-17T19:20:11.427Z,11.47
2019-01-17T19:22:40.369Z,16.57
2019-01-17T19:25:09.492Z,15.83
2019-01-17T19:27:38.415Z,6.63
2019-01-17T19:30:10.379Z,10.67
2019-01-17T19:32:39.400Z,10.60
2019-01-17T19:35:08.640Z,14.37
2019-01-17T19:37:37.731Z,11.57
2019-01-17T19:40:08.434Z,13.97
2019-01-17T19:42:37.452Z,13.90
2019-01-17T19:45:07.515Z,12.10
2019-01-17T19:47:36.506Z,7.23
2019-01-17T19:50:09.628Z,6.77
2019-01-17T19:52:38.666Z,7.93
2019-01-17T19:55:07.764Z,4.63
2019-01-17T19:57:37.350Z,8.77
2019-01-17T20:00:09.119Z,7.37
2019-01-17T20:02:38.684Z,8.73
2019-01-17T20:05:09.726Z,9.50
2019-01-17T20:07:39.790Z,12.67
2019-01-17T20:10:12.663Z,9.13
2019-01-17T20:12:42.258Z,8.63
2019-01-17T20:15:11.802Z,6.27
2019-01-17T20:17:41.169Z,3.57
2019-01-17T20:20:11.729Z,6.33
2019-01-17T20:22:40.845Z,5.53
2019-01-17T20:25:10.080Z,5.70
2019-01-17T20:27:39.124Z,5.80
2019-01-17T20:30:14.809Z,5.30
2019-01-17T20:32:43.818Z,5.40
2019-01-17T20:35:12.876Z,8.37
2019-01-17T20:37:41.824Z,4.50
2019-01-17T20:40:12.716Z,4.53
2019-01-17T20:42:41.748Z,7.17
2019-01-17T20:45:11.553Z,4.53
2019-01-17T20:47:40.579Z,5.80
2019-01-17T20:50:12.307Z,5.37
2019-01-17T20:52:41.329Z,8.83
2019-01-17T20:55:10.872Z,4.60
2019-01-17T20:57:40.313Z,8.67
2019-01-17T21:00:19.072Z,4.60
2019-01-17T21:02:48.100Z,6.33
2019-01-17T21:05:17.781Z,7.20
2019-01-17T21:07:46.800Z,9.87
2019-01-17T21:10:15.984Z,3.43
2019-01-17T21:12:44.982Z,8.03
2019-01-17T21:15:14.183Z,4.20
2019-01-17T21:17:43.295Z,3.20
2019-01-17T21:20:12.748Z,5.73
2019-01-17T21:22:41.764Z,3.77
2019-01-17T21:25:13.418Z,4.80
2019-01-17T21:27:42.443Z,4.10
2019-01-17T21:30:17.422Z,4.37
2019-01-17T21:32:46.456Z,3.60
2019-01-17T21:35:15.489Z,3.03
2019-01-17T21:37:44.504Z,5.80
2019-01-17T21:40:15.741Z,11.30
2019-01-17T21:42:44.743Z,8.93
2019-01-17T21:45:15.309Z,4.60
2019-01-17T21:47:44.311Z,7.93
2019-01-17T21:50:15.692Z,2.53
2019-01-17T21:52:44.700Z,4.97
2019-01-17T21:55:13.704Z,5.77
2019-01-17T21:57:42.769Z,7.80
2019-01-17T22:00:16.071Z,10.23
2019-01-17T22:02:45.028Z,7.40
2019-01-17T22:05:14.032Z,5.00
2019-01-17T22:07:42.967Z,7.10
2019-01-17T22:10:12.335Z,4.73
2019-01-17T22:12:41.349Z,2.90
2019-01-17T22:15:13.323Z,5.17
2019-01-17T22:17:42.323Z,5.50
2019-01-17T22:20:11.487Z,5.93
2019-01-17T22:22:40.515Z,4.07
2019-01-17T22:25:10.902Z,7.03
2019-01-17T22:27:39.905Z,7.63
2019-01-17T22:30:12.797Z,4.13
2019-01-17T22:32:41.826Z,3.03
2019-01-17T22:35:10.851Z,7.13
2019-01-17T22:37:39.859Z,4.47
2019-01-17T22:40:10.228Z,3.40
2019-01-17T22:42:39.264Z,4.10
2019-01-17T22:45:10.840Z,2.93
2019-01-17T22:47:39.852Z,3.40
2019-01-17T22:50:11.060Z,2.70
2019-01-17T22:52:40.113Z,6.73
2019-01-17T22:55:09.269Z,3.47
2019-01-17T22:57:38.199Z,3.27
2019-01-17T23:00:50.830Z,3.17
2019-01-17T23:03:22.048Z,3.10
2019-01-17T23:05:51.051Z,5.10
2019-01-17T23:08:20.101Z,3.83
2019-01-17T23:10:49.122Z,6.93
2019-01-17T23:13:18.164Z,3.40
2019-01-17T23:15:47.176Z,7.63
2019-01-17T23:18:16.221Z,3.50
2019-01-17T23:20:45.238Z,4.20
2019-01-17T23:23:14.188Z,3.33
2019-01-17T23:25:43.381Z,4.07
2019-01-17T23:28:12.691Z,2.77
2019-01-17T23:30:42.313Z,6.23
2019-01-17T23:33:11.371Z,4.37
2019-01-17T23:35:40.409Z,3.40
2019-01-17T23:38:09.418Z,5.40
2019-01-17T23:40:38.449Z,3.13
2019-01-17T23:43:07.378Z,3.10
2019-01-17T23:45:36.408Z,4.50
2019-01-17T23:48:05.612Z,3.90
2019-01-17T23:50:34.617Z,3.37
2019-01-17T23:53:03.644Z,5.00
2019-01-17T23:55:32.655Z,3.80
2019-01-17T23:58:01.692Z,4.57
